Time;durP1;ratioP1;P1;durP2;ratioP2;P2;SDS_P1;SDS_P2;PMS_P1;PMS_P2;Temp;Humidity;BMP_temperature;BMP_pressure;BME280_temperature;BME280_humidity;BME280_pressure;Samples;Min_cycle;Max_cycle;Signal;HPM_P1;HPM_P2
2021/05/13 00:00:48;;;;;;;17.47;9.40;;;11.30;99.90;;;;;;5029524;28;20237;-63
2021/05/13 00:03:16;;;;;;;17.17;9.63;;;11.20;99.90;;;;;;5030084;28;20298;-63
2021/05/13 00:05:44;;;;;;;19.83;10.03;;;11.20;99.90;;;;;;5029925;28;20245;-63
2021/05/13 00:08:12;;;;;;;18.07;10.03;;;11.20;99.90;;;;;;5029790;28;20265;-63
2021/05/13 00:10:40;;;;;;;18.23;10.97;;;11.20;99.90;;;;;;5029254;28;20238;-63
2021/05/13 00:13:09;;;;;;;19.80;10.87;;;11.10;99.90;;;;;;5030006;28;20247;-63
2021/05/13 00:15:41;;;;;;;19.50;10.43;;;11.10;99.90;;;;;;5030109;28;20437;-63
2021/05/13 00:18:10;;;;;;;19.40;10.90;;;11.10;99.90;;;;;;5029399;28;21114;-63
2021/05/13 00:20:44;;;;;;;17.90;10.77;;;11.10;99.90;;;;;;5028284;28;20239;-63
2021/05/13 00:23:12;;;;;;;19.20;11.80;;;11.20;99.90;;;;;;5029534;28;20248;-63
2021/05/13 00:25:41;;;;;;;16.70;11.27;;;11.10;99.90;;;;;;5029868;28;20323;-63
2021/05/13 00:28:10;;;;;;;18.43;11.07;;;11.10;99.90;;;;;;5029762;28;20265;-63
2021/05/13 00:30:38;;;;;;;20.63;11.43;;;11.10;99.90;;;;;;5027990;28;20253;-63
2021/05/13 00:33:05;;;;;;;18.20;11.57;;;11.10;99.90;;;;;;5028654;28;20293;-63
2021/05/13 00:35:33;;;;;;;20.43;10.77;;;11.10;99.90;;;;;;5029377;28;20284;-63
2021/05/13 00:38:03;;;;;;;20.03;11.27;;;11.20;99.90;;;;;;5029363;28;20231;-63
2021/05/13 00:40:32;;;;;;;18.10;9.90;;;11.20;99.90;;;;;;5028017;28;20322;-63
2021/05/13 00:43:01;;;;;;;18.53;12.27;;;11.20;99.90;;;;;;5029424;28;20247;-63
2021/05/13 00:45:30;;;;;;;19.67;12.70;;;11.20;99.90;;;;;;5029658;28;20361;-63
2021/05/13 00:48:05;;;;;;;21.23;13.03;;;11.20;99.90;;;;;;5028755;28;20247;-63
2021/05/13 00:50:35;;;;;;;21.83;12.53;;;11.10;99.90;;;;;;5028224;28;20317;-63
2021/05/13 00:53:07;;;;;;;21.20;13.43;;;11.00;99.90;;;;;;5027833;28;20243;-63
2021/05/13 00:55:36;;;;;;;20.30;12.83;;;11.10;99.90;;;;;;5029448;28;20241;-63
2021/05/13 00:58:06;;;;;;;22.03;13.07;;;11.00;99.90;;;;;;5043993;28;20318;-63
2021/05/13 01:00:41;;;;;;;21.00;13.73;;;11.00;99.90;;;;;;5028220;28;20244;-63
2021/05/13 01:03:09;;;;;;;21.07;13.00;;;11.00;99.90;;;;;;5028911;28;20239;-63
2021/05/13 01:05:37;;;;;;;19.27;12.90;;;11.00;99.90;;;;;;5029204;28;20243;-63
2021/05/13 01:08:07;;;;;;;22.87;14.83;;;11.00;99.90;;;;;;5028675;28;20240;-63
2021/05/13 01:10:37;;;;;;;22.03;14.03;;;10.90;99.90;;;;;;5028493;28;20240;-63
2021/05/13 01:13:08;;;;;;;24.00;13.83;;;10.90;99.90;;;;;;5028547;28;20239;-63
2021/05/13 01:15:40;;;;;;;24.10;14.37;;;10.90;99.90;;;;;;5028961;28;20239;-63
2021/05/13 01:18:14;;;;;;;22.50;14.17;;;10.90;99.90;;;;;;5029008;28;20326;-63
2021/05/13 01:20:43;;;;;;;24.20;15.10;;;10.90;99.90;;;;;;5028141;28;20238;-63
2021/05/13 01:23:13;;;;;;;24.43;15.10;;;10.90;99.90;;;;;;5028428;28;20236;-63
2021/05/13 01:25:49;;;;;;;24.17;15.43;;;10.90;99.90;;;;;;5028579;28;20254;-63
2021/05/13 01:28:17;;;;;;;26.10;15.43;;;10.90;99.90;;;;;;5027762;28;20234;-63
2021/05/13 01:30:47;;;;;;;24.17;13.80;;;10.90;99.90;;;;;;5026677;28;20593;-63
2021/05/13 01:33:15;;;;;;;24.83;14.27;;;10.80;99.90;;;;;;5028066;28;20761;-63
2021/05/13 01:35:43;;;;;;;22.37;14.40;;;10.90;99.90;;;;;;5026119;28;20246;-63
2021/05/13 01:38:14;;;;;;;24.83;13.90;;;10.80;99.90;;;;;;5026897;28;20998;-63
2021/05/13 01:40:51;;;;;;;25.70;15.40;;;10.80;99.90;;;;;;5025532;28;20243;-63
2021/05/13 01:43:20;;;;;;;24.43;14.10;;;10.80;99.90;;;;;;5027128;28;20305;-63
2021/05/13 01:45:47;;;;;;;20.13;13.80;;;10.90;99.90;;;;;;5026784;28;20342;-63
2021/05/13 01:48:16;;;;;;;20.80;14.27;;;10.80;99.90;;;;;;5026270;28;20285;-63
2021/05/13 01:50:47;;;;;;;20.83;13.80;;;10.90;99.90;;;;;;5027171;28;20239;-63
2021/05/13 01:53:16;;;;;;;22.63;14.20;;;10.90;99.90;;;;;;5028501;28;20239;-63
2021/05/13 01:55:56;;;;;;;21.98;13.52;;;10.90;99.90;;;;;;2082096;28;10023799;-63
2021/05/13 01:58:24;;;;;;;21.70;14.20;;;10.80;99.90;;;;;;4335432;28;10001318;-63
2021/05/13 02:00:52;;;;;;;24.80;14.63;;;10.70;99.90;;;;;;5027082;28;20310;-63
2021/05/13 02:03:20;;;;;;;23.10;14.13;;;10.80;99.90;;;;;;5028410;28;20809;-63
2021/05/13 02:05:48;;;;;;;21.63;13.97;;;10.80;99.90;;;;;;5028533;28;20254;-63
2021/05/13 02:08:16;;;;;;;22.43;14.00;;;10.80;99.90;;;;;;5028115;28;20246;-63
2021/05/13 02:10:44;;;;;;;20.43;14.30;;;10.80;99.90;;;;;;5027327;28;20246;-63
2021/05/13 02:13:12;;;;;;;20.47;13.53;;;10.70;99.90;;;;;;5027662;28;20297;-63
2021/05/13 02:15:40;;;;;;;22.40;14.30;;;10.70;99.90;;;;;;5027849;28;20286;-63
2021/05/13 02:18:08;;;;;;;22.53;13.57;;;10.70;99.90;;;;;;5027416;28;20464;-63
2021/05/13 02:20:36;;;;;;;20.10;13.50;;;10.80;99.90;;;;;;5027048;28;20710;-63
2021/05/13 02:23:04;;;;;;;21.57;13.77;;;10.80;99.90;;;;;;5027034;28;20294;-63
2021/05/13 02:25:35;;;;;;;20.57;14.53;;;10.70;99.90;;;;;;5027383;28;20228;-63
2021/05/13 02:28:03;;;;;;;24.70;14.67;;;10.70;99.90;;;;;;5026690;28;20339;-62
2021/05/13 02:30:31;;;;;;;22.13;14.97;;;10.70;99.90;;;;;;5026361;28;20231;-63
2021/05/13 02:32:59;;;;;;;27.40;14.60;;;10.70;99.90;;;;;;5027512;28;20231;-63
2021/05/13 02:35:27;;;;;;;23.97;15.17;;;10.70;99.90;;;;;;5027037;28;20239;-63
2021/05/13 02:37:55;;;;;;;19.93;15.27;;;10.70;99.90;;;;;;5027852;28;20235;-63
2021/05/13 02:40:22;;;;;;;21.77;14.07;;;10.70;99.90;;;;;;5026599;28;20851;-63
2021/05/13 02:42:52;;;;;;;22.57;14.77;;;10.70;99.90;;;;;;5027732;28;20329;-63
2021/05/13 02:45:20;;;;;;;21.57;14.73;;;10.70;99.90;;;;;;5027741;28;20258;-63
2021/05/13 02:47:48;;;;;;;22.67;13.97;;;10.60;99.90;;;;;;5027590;28;20650;-63
2021/05/13 02:50:16;;;;;;;20.47;14.53;;;10.70;99.90;;;;;;5026423;28;20281;-63
2021/05/13 02:52:44;;;;;;;21.97;14.03;;;10.70;99.90;;;;;;5027318;28;20286;-63
2021/05/13 02:55:13;;;;;;;19.93;13.77;;;10.70;99.90;;;;;;5027531;28;20251;-63
2021/05/13 02:57:41;;;;;;;23.30;14.10;;;10.70;99.90;;;;;;5027427;28;20275;-63
2021/05/13 03:00:20;;;;;;;25.53;14.57;;;10.70;99.90;;;;;;5026894;28;20242;-63
2021/05/13 03:02:48;;;;;;;22.70;14.20;;;10.70;99.90;;;;;;5027258;28;20309;-63
2021/05/13 03:05:18;;;;;;;20.10;14.30;;;10.70;99.90;;;;;;5027212;28;20234;-63
2021/05/13 03:07:48;;;;;;;23.83;14.67;;;10.70;99.90;;;;;;5027063;28;20598;-63
2021/05/13 03:10:21;;;;;;;22.23;14.30;;;10.70;99.90;;;;;;5026639;28;20322;-63
2021/05/13 03:12:51;;;;;;;21.57;13.57;;;10.70;99.90;;;;;;5027678;28;20234;-63
2021/05/13 03:15:20;;;;;;;23.40;14.40;;;10.70;99.90;;;;;;5027624;28;20259;-63
2021/05/13 03:17:49;;;;;;;25.93;14.23;;;10.70;99.90;;;;;;5026969;28;20242;-63
2021/05/13 03:20:21;;;;;;;23.90;14.43;;;10.70;99.90;;;;;;5026196;28;20293;-63
2021/05/13 03:22:53;;;;;;;28.43;15.00;;;10.70;99.90;;;;;;5024234;28;20322;-63
2021/05/13 03:25:26;;;;;;;27.37;15.43;;;10.70;99.90;;;;;;5026615;28;20238;-63
2021/05/13 03:27:56;;;;;;;21.67;15.60;;;10.70;99.90;;;;;;5026952;28;20635;-63
2021/05/13 03:30:25;;;;;;;27.17;15.37;;;10.60;99.90;;;;;;5028904;28;20710;-63
2021/05/13 03:32:54;;;;;;;23.63;15.43;;;10.60;99.90;;;;;;5030998;28;20267;-63
2021/05/13 03:35:22;;;;;;;23.50;15.77;;;10.60;99.90;;;;;;5031081;28;20236;-63
2021/05/13 03:37:50;;;;;;;25.60;16.27;;;10.60;99.90;;;;;;5031541;28;20249;-63
2021/05/13 03:40:18;;;;;;;27.10;16.80;;;10.60;99.90;;;;;;5030023;28;20250;-63
2021/05/13 03:42:45;;;;;;;21.63;14.80;;;10.60;99.90;;;;;;5030329;28;20248;-63
2021/05/13 03:45:14;;;;;;;25.70;15.83;;;10.70;99.90;;;;;;5031249;28;20239;-63
2021/05/13 03:47:42;;;;;;;25.73;16.37;;;10.60;99.90;;;;;;5030776;28;20235;-63
2021/05/13 03:50:11;;;;;;;25.13;16.03;;;10.60;99.90;;;;;;5030134;28;20718;-63
2021/05/13 03:52:39;;;;;;;26.73;15.97;;;10.50;99.90;;;;;;5030588;28;20262;-63
2021/05/13 03:55:08;;;;;;;26.27;15.77;;;10.60;99.90;;;;;;5030939;28;20282;-63
2021/05/13 03:57:36;;;;;;;21.97;15.80;;;10.60;99.90;;;;;;5030478;28;20243;-63
2021/05/13 04:00:08;;;;;;;23.47;16.67;;;10.60;99.90;;;;;;5030013;28;20235;-63
2021/05/13 04:02:36;;;;;;;22.57;15.90;;;10.60;99.90;;;;;;5029522;28;20286;-63
2021/05/13 04:05:07;;;;;;;26.77;16.70;;;10.60;99.90;;;;;;5030705;28;20240;-63
2021/05/13 04:07:37;;;;;;;26.93;16.90;;;10.70;99.90;;;;;;5030424;28;20239;-63
2021/05/13 04:10:08;;;;;;;30.83;17.10;;;10.60;99.90;;;;;;5029810;28;20246;-63
2021/05/13 04:12:38;;;;;;;29.80;17.00;;;10.60;99.90;;;;;;5045290;28;20326;-63
2021/05/13 04:15:08;;;;;;;27.50;17.03;;;10.60;99.90;;;;;;5030702;28;20246;-63
2021/05/13 04:17:37;;;;;;;28.03;16.27;;;10.70;99.90;;;;;;5030191;28;20274;-63
2021/05/13 04:20:08;;;;;;;28.90;17.20;;;10.60;99.90;;;;;;5028218;28;20330;-63
2021/05/13 04:22:36;;;;;;;30.73;17.20;;;10.70;99.90;;;;;;5028367;28;20249;-63
2021/05/13 04:25:06;;;;;;;26.30;16.60;;;10.70;99.90;;;;;;5030389;28;20319;-63
2021/05/13 04:27:33;;;;;;;29.93;16.87;;;10.70;99.90;;;;;;5029439;28;20741;-63
2021/05/13 04:30:01;;;;;;;30.03;17.60;;;10.70;99.90;;;;;;5044551;28;20330;-63
2021/05/13 04:32:29;;;;;;;28.50;17.30;;;10.70;99.90;;;;;;5029338;28;20599;-63
2021/05/13 04:34:57;;;;;;;30.37;17.10;;;10.70;99.90;;;;;;5029170;28;20243;-63
2021/05/13 04:37:26;;;;;;;22.93;17.67;;;10.70;99.90;;;;;;5029741;28;20235;-63
2021/05/13 04:39:54;;;;;;;31.80;17.47;;;10.70;99.90;;;;;;5029600;28;20331;-63
2021/05/13 04:42:21;;;;;;;28.27;16.93;;;10.60;99.90;;;;;;5028839;28;20234;-63
2021/05/13 04:44:49;;;;;;;25.50;17.13;;;10.70;99.90;;;;;;5030195;28;20263;-63
2021/05/13 04:47:26;;;;;;;26.17;16.83;;;10.70;99.90;;;;;;5029712;28;20235;-63
2021/05/13 04:49:55;;;;;;;24.57;16.77;;;10.70;99.90;;;;;;5028587;28;20561;-63
2021/05/13 04:52:25;;;;;;;28.30;17.30;;;10.70;99.90;;;;;;5028928;28;20791;-63
2021/05/13 04:54:56;;;;;;;25.63;16.90;;;10.70;99.90;;;;;;5029624;28;20640;-63
2021/05/13 04:57:25;;;;;;;27.80;17.40;;;10.70;99.90;;;;;;5029829;28;20248;-63
2021/05/13 04:59:52;;;;;;;32.73;17.83;;;10.70;99.90;;;;;;5028605;28;20702;-63
2021/05/13 05:02:20;;;;;;;26.53;15.80;;;10.60;99.90;;;;;;5029378;28;20781;-63
2021/05/13 05:04:49;;;;;;;27.77;16.50;;;10.60;99.90;;;;;;5029576;28;20232;-63
2021/05/13 05:07:16;;;;;;;30.77;17.33;;;10.60;99.90;;;;;;5029005;28;20635;-63
2021/05/13 05:09:44;;;;;;;28.63;16.63;;;10.70;99.90;;;;;;5028406;28;20267;-63
2021/05/13 05:12:14;;;;;;;27.10;17.57;;;10.70;99.90;;;;;;5028901;28;20626;-63
2021/05/13 05:14:42;;;;;;;30.40;16.90;;;10.70;99.90;;;;;;5029056;28;20243;-63
2021/05/13 05:17:10;;;;;;;27.10;17.43;;;10.70;99.90;;;;;;5029138;28;20243;-63
2021/05/13 05:19:38;;;;;;;27.87;16.80;;;10.70;99.90;;;;;;5027819;28;20262;-63
2021/05/13 05:22:06;;;;;;;26.50;16.73;;;10.70;99.90;;;;;;5025653;28;20247;-63
2021/05/13 05:24:35;;;;;;;26.93;15.60;;;10.70;99.90;;;;;;5028544;28;20231;-63
2021/05/13 05:27:03;;;;;;;24.90;15.77;;;10.70;99.90;;;;;;5027310;28;20236;-63
2021/05/13 05:29:32;;;;;;;27.70;16.13;;;10.70;99.90;;;;;;5028499;28;20786;-63
2021/05/13 05:32:00;;;;;;;27.67;16.20;;;10.70;99.90;;;;;;5028233;28;20266;-63
2021/05/13 05:34:28;;;;;;;29.43;16.37;;;10.70;99.90;;;;;;5028764;28;20321;-63
2021/05/13 05:36:56;;;;;;;26.43;17.17;;;10.70;99.90;;;;;;5029010;28;20301;-63
2021/05/13 05:39:25;;;;;;;31.77;16.37;;;10.70;99.90;;;;;;5027985;28;20235;-63
2021/05/13 05:41:53;;;;;;;27.17;16.70;;;10.70;99.90;;;;;;5028050;28;20235;-63
2021/05/13 05:44:22;;;;;;;29.53;17.93;;;10.80;99.90;;;;;;5028766;28;20318;-63
2021/05/13 05:46:50;;;;;;;25.17;17.10;;;10.70;99.90;;;;;;5028696;28;20297;-63
2021/05/13 05:49:19;;;;;;;26.67;16.83;;;10.80;99.90;;;;;;5028194;28;20239;-63
2021/05/13 05:51:47;;;;;;;27.93;17.47;;;10.80;99.90;;;;;;5027431;28;20238;-63
2021/05/13 05:54:15;;;;;;;27.00;17.63;;;10.80;99.90;;;;;;5025681;28;20243;-63
2021/05/13 05:56:43;;;;;;;26.87;16.77;;;10.80;99.90;;;;;;5028437;28;20251;-63
2021/05/13 05:59:10;;;;;;;27.73;16.40;;;10.80;99.90;;;;;;5027637;28;20235;-63
2021/05/13 06:01:39;;;;;;;24.67;16.20;;;10.70;99.90;;;;;;5027257;28;20238;-63
2021/05/13 06:04:08;;;;;;;23.07;16.03;;;10.70;99.90;;;;;;5028500;28;20236;-63
2021/05/13 06:06:37;;;;;;;20.57;14.77;;;10.70;99.90;;;;;;5042976;28;20607;-63
2021/05/13 06:09:07;;;;;;;20.60;15.03;;;10.70;99.90;;;;;;5028140;28;20345;-63
2021/05/13 06:11:35;;;;;;;25.73;15.20;;;10.70;99.90;;;;;;5027302;28;20241;-63
2021/05/13 06:14:04;;;;;;;22.00;15.60;;;10.70;99.90;;;;;;5028277;28;20324;-63
2021/05/13 06:16:32;;;;;;;24.10;15.67;;;10.70;99.90;;;;;;5027288;28;20246;-63
2021/05/13 06:19:01;;;;;;;22.83;16.20;;;10.70;99.90;;;;;;5026279;28;20235;-63
2021/05/13 06:21:29;;;;;;;23.50;15.17;;;10.70;99.90;;;;;;5022968;28;20718;-63
2021/05/13 06:24:00;;;;;;;24.30;16.53;;;10.70;99.90;;;;;;5027565;28;20231;-63
2021/05/13 06:26:30;;;;;;;22.47;16.33;;;10.70;99.90;;;;;;5026284;28;20623;-63
2021/05/13 06:29:03;;;;;;;20.83;15.40;;;10.70;99.90;;;;;;5026336;28;20242;-63
2021/05/13 06:31:31;;;;;;;21.60;15.47;;;10.70;99.90;;;;;;5025480;28;20239;-63
2021/05/13 06:33:59;;;;;;;22.30;15.70;;;10.70;99.90;;;;;;5026643;28;20528;-63
2021/05/13 06:36:27;;;;;;;19.37;15.17;;;10.70;99.90;;;;;;5026084;28;20238;-63
2021/05/13 06:38:56;;;;;;;21.90;15.60;;;10.80;99.90;;;;;;5025950;28;20238;-63
2021/05/13 06:41:23;;;;;;;20.63;15.00;;;10.80;99.90;;;;;;5025417;28;20322;-63
2021/05/13 06:43:51;;;;;;;20.30;14.53;;;10.80;99.90;;;;;;5026391;28;20239;-63
2021/05/13 06:46:21;;;;;;;19.00;14.80;;;10.70;99.90;;;;;;5025706;28;20239;-63
2021/05/13 06:48:51;;;;;;;18.00;14.23;;;10.70;99.90;;;;;;5025483;28;20239;-63
2021/05/13 06:51:19;;;;;;;21.13;15.90;;;10.80;99.90;;;;;;5024994;28;20646;-63
2021/05/13 06:53:47;;;;;;;21.27;14.93;;;10.80;99.90;;;;;;5026204;28;20269;-63
2021/05/13 06:56:16;;;;;;;18.00;14.80;;;10.80;99.90;;;;;;5026360;28;20319;-63
2021/05/13 06:58:45;;;;;;;18.60;15.17;;;10.90;99.90;;;;;;5024945;28;20243;-63
2021/05/13 07:01:12;;;;;;;20.60;14.90;;;10.90;99.90;;;;;;5024609;28;20272;-63
2021/05/13 07:03:40;;;;;;;21.10;15.87;;;10.90;99.90;;;;;;5025977;28;20703;-63
2021/05/13 07:06:08;;;;;;;21.27;16.13;;;10.90;99.90;;;;;;5029690;28;20243;-63
2021/05/13 07:08:36;;;;;;;24.87;15.63;;;10.90;99.90;;;;;;5029642;28;20247;-63
2021/05/13 07:11:04;;;;;;;20.00;15.43;;;10.90;99.90;;;;;;5028566;28;20238;-63
2021/05/13 07:13:33;;;;;;;23.23;16.80;;;10.90;99.90;;;;;;5028880;28;20260;-63
2021/05/13 07:16:00;;;;;;;21.37;16.10;;;10.90;99.90;;;;;;5028629;28;20745;-63
2021/05/13 07:18:29;;;;;;;21.73;16.03;;;10.90;99.90;;;;;;5029708;28;20235;-63
2021/05/13 07:20:56;;;;;;;23.83;16.80;;;10.90;99.90;;;;;;5028666;28;20634;-63
2021/05/13 07:23:24;;;;;;;23.10;15.77;;;11.00;99.90;;;;;;5029587;28;20246;-63
2021/05/13 07:25:55;;;;;;;19.13;15.73;;;11.10;99.90;;;;;;5029291;28;20251;-63
2021/05/13 07:28:23;;;;;;;19.30;14.60;;;11.10;99.90;;;;;;5029601;28;20733;-63
2021/05/13 07:30:51;;;;;;;19.43;14.50;;;11.20;99.90;;;;;;5028848;28;20262;-63
2021/05/13 07:33:19;;;;;;;17.73;13.67;;;11.10;99.90;;;;;;5029168;28;20242;-63
2021/05/13 07:35:47;;;;;;;19.77;14.53;;;11.20;99.90;;;;;;5029504;28;20250;-63
2021/05/13 07:38:15;;;;;;;18.80;13.63;;;11.20;99.90;;;;;;5029154;28;20659;-63
2021/05/13 07:40:43;;;;;;;18.60;13.93;;;11.20;99.90;;;;;;5028131;28;21334;-63
2021/05/13 07:43:11;;;;;;;16.53;12.47;;;11.20;99.90;;;;;;5028231;28;20247;-63
2021/05/13 07:45:43;;;;;;;15.33;12.67;;;11.20;99.90;;;;;;5028883;28;20267;-63
2021/05/13 07:48:12;;;;;;;15.10;11.80;;;11.30;99.90;;;;;;5029168;28;20245;-63
2021/05/13 07:50:40;;;;;;;17.30;12.13;;;11.30;99.90;;;;;;5027159;28;20247;-63
2021/05/13 07:53:09;;;;;;;14.77;10.77;;;11.30;99.90;;;;;;5029091;28;20623;-63
2021/05/13 07:55:37;;;;;;;15.53;12.23;;;11.30;99.90;;;;;;5028840;28;20319;-63
2021/05/13 07:58:05;;;;;;;13.03;10.53;;;11.30;99.90;;;;;;5028896;28;20236;-63
2021/05/13 08:00:33;;;;;;;13.77;11.10;;;11.40;99.90;;;;;;5028182;28;20507;-63
2021/05/13 08:03:01;;;;;;;12.87;11.07;;;11.40;99.90;;;;;;5028504;28;20250;-63
2021/05/13 08:05:30;;;;;;;13.43;11.13;;;11.40;99.90;;;;;;5028432;28;20239;-63
2021/05/13 08:07:58;;;;;;;13.13;10.13;;;11.50;99.90;;;;;;5027773;28;20659;-63
2021/05/13 08:10:26;;;;;;;14.33;10.70;;;11.40;99.90;;;;;;5023731;28;20588;-64
2021/05/13 08:12:54;;;;;;;14.30;10.43;;;11.50;99.90;;;;;;5025969;28;20244;-64
2021/05/13 08:15:21;;;;;;;13.73;10.40;;;11.50;99.90;;;;;;5027808;28;20248;-63
2021/05/13 08:17:49;;;;;;;10.97;9.40;;;11.50;99.90;;;;;;5029171;28;20239;-63
2021/05/13 08:20:19;;;;;;;13.20;9.37;;;11.50;99.90;;;;;;5028517;28;20270;-63
2021/05/13 08:22:48;;;;;;;11.97;9.70;;;11.60;99.90;;;;;;5028826;28;20717;-63
2021/05/13 08:25:20;;;;;;;10.90;8.80;;;11.60;99.90;;;;;;5029335;28;20352;-63
2021/05/13 08:27:49;;;;;;;11.73;9.00;;;11.60;99.90;;;;;;5030012;28;20277;-64
2021/05/13 08:30:18;;;;;;;10.57;8.77;;;11.60;99.90;;;;;;5028155;28;20734;-63
2021/05/13 08:32:46;;;;;;;13.27;9.47;;;11.60;99.90;;;;;;5029027;28;20236;-62
2021/05/13 08:35:14;;;;;;;10.57;8.90;;;11.70;99.90;;;;;;5028930;28;20239;-61
2021/05/13 08:37:42;;;;;;;10.40;8.27;;;11.60;99.90;;;;;;5028789;28;21851;-61
2021/05/13 08:40:12;;;;;;;11.10;8.97;;;11.80;99.90;;;;;;5028210;28;20318;-61
2021/05/13 08:42:40;;;;;;;10.67;8.37;;;11.80;99.90;;;;;;5028202;28;20243;-61
2021/05/13 08:45:10;;;;;;;11.83;8.97;;;11.80;99.90;;;;;;5029686;28;20310;-61
2021/05/13 08:47:45;;;;;;;11.47;8.50;;;11.80;99.90;;;;;;5029644;28;20236;-61
2021/05/13 08:50:15;;;;;;;10.57;7.80;;;11.80;99.90;;;;;;5028246;28;20239;-62
2021/05/13 08:52:43;;;;;;;10.70;8.00;;;11.90;99.90;;;;;;5028503;28;20263;-61
2021/05/13 08:55:16;;;;;;;9.57;7.67;;;11.90;99.90;;;;;;5041206;28;20247;-61
2021/05/13 08:57:44;;;;;;;10.17;8.27;;;11.90;99.90;;;;;;5028844;28;20258;-61
2021/05/13 09:00:14;;;;;;;10.50;8.57;;;11.90;99.90;;;;;;5035077;28;20292;-61
2021/05/13 09:02:49;;;;;;;11.17;9.20;;;11.90;99.90;;;;;;5028723;28;20326;-61
2021/05/13 09:05:18;;;;;;;11.30;8.93;;;11.90;99.90;;;;;;5029183;28;20257;-61
2021/05/13 09:07:46;;;;;;;9.83;8.17;;;11.90;99.90;;;;;;5027838;28;20637;-61
2021/05/13 09:10:17;;;;;;;10.67;8.80;;;11.90;99.90;;;;;;5027397;28;20274;-61
2021/05/13 09:12:48;;;;;;;11.90;8.83;;;11.90;99.90;;;;;;5026241;28;20329;-61
2021/05/13 09:15:19;;;;;;;9.47;8.27;;;11.90;99.90;;;;;;5028469;28;20285;-61
2021/05/13 09:17:50;;;;;;;9.53;7.67;;;11.90;99.90;;;;;;5025712;28;20239;-61
2021/05/13 09:20:27;;;;;;;9.30;8.30;;;11.90;99.90;;;;;;5027354;28;20297;-61
2021/05/13 09:23:12;;;;;;;9.17;7.90;;;11.90;99.90;;;;;;5028369;28;20293;-60
2021/05/13 09:25:44;;;;;;;9.50;7.90;;;11.90;99.90;;;;;;5028928;28;20286;-60
2021/05/13 09:28:12;;;;;;;9.93;7.87;;;11.90;99.90;;;;;;5027323;28;20260;-59
2021/05/13 09:30:40;;;;;;;8.80;7.87;;;12.10;99.90;;;;;;5027368;28;20599;-61
2021/05/13 09:33:09;;;;;;;8.27;7.23;;;12.20;99.90;;;;;;5028892;28;20266;-61
2021/05/13 09:35:38;;;;;;;8.43;7.43;;;12.30;99.90;;;;;;5028487;28;20261;-61
2021/05/13 09:38:08;;;;;;;8.53;7.63;;;12.20;99.90;;;;;;5028354;28;20247;-60
2021/05/13 09:40:39;;;;;;;8.83;7.93;;;12.10;99.90;;;;;;5026275;28;20284;-61
2021/05/13 09:43:13;;;;;;;9.60;7.53;;;12.10;99.90;;;;;;5027624;28;20232;-61
2021/05/13 09:45:46;;;;;;;8.17;7.37;;;12.10;99.90;;;;;;5028737;28;20239;-60
2021/05/13 09:48:34;;;;;;;8.70;7.83;;;12.10;99.90;;;;;;5028532;28;20243;-61
2021/05/13 09:51:22;;;;;;;9.03;7.07;;;12.00;99.90;;;;;;5027095;28;20259;-61
2021/05/13 09:54:07;;;;;;;10.03;7.67;;;12.00;99.90;;;;;;5028533;28;20243;-61
2021/05/13 09:56:37;;;;;;;9.70;8.70;;;12.10;99.90;;;;;;5027911;28;20273;-60
2021/05/13 09:59:26;;;;;;;11.23;8.23;;;12.10;99.90;;;;;;5028127;28;20240;-60
2021/05/13 10:01:56;;;;;;;11.47;8.33;;;12.10;99.90;;;;;;5026886;28;20240;-61
2021/05/13 10:04:25;;;;;;;9.77;8.40;;;12.20;99.90;;;;;;5026858;28;20286;-61
2021/05/13 10:06:53;;;;;;;10.80;9.23;;;12.20;99.90;;;;;;5027679;28;20315;-61
2021/05/13 10:09:23;;;;;;;12.37;9.60;;;12.10;99.90;;;;;;5022536;28;20321;-60
2021/05/13 10:11:54;;;;;;;10.50;8.77;;;12.00;99.90;;;;;;5027246;28;20640;-61
2021/05/13 10:14:28;;;;;;;10.13;8.77;;;12.00;99.90;;;;;;5027385;28;20285;-61
2021/05/13 10:16:59;;;;;;;10.20;8.87;;;12.00;99.90;;;;;;5027539;28;20235;-61
2021/05/13 10:19:31;;;;;;;10.90;8.97;;;12.10;99.90;;;;;;5019505;28;20280;-61
2021/05/13 10:22:01;;;;;;;10.73;9.30;;;12.10;99.90;;;;;;5037620;28;20306;-61
2021/05/13 10:24:29;;;;;;;10.93;9.27;;;12.10;99.90;;;;;;5021183;28;20329;-60
2021/05/13 10:26:57;;;;;;;10.43;9.10;;;12.10;99.90;;;;;;5007800;28;20239;-61
2021/05/13 10:29:36;;;;;;;9.67;8.70;;;12.20;99.90;;;;;;5024236;28;20624;-61
2021/05/13 10:32:14;;;;;;;9.63;8.73;;;12.20;99.90;;;;;;5026778;28;20337;-61
2021/05/13 10:34:52;;;;;;;11.87;8.87;;;12.30;99.90;;;;;;5027118;28;20248;-59
2021/05/13 10:37:30;;;;;;;9.80;8.80;;;12.30;99.90;;;;;;5027335;28;20626;-60
2021/05/13 10:40:25;;;;;;;11.83;8.77;;;12.10;99.90;;;;;;5025951;28;20235;-59
2021/05/13 10:43:03;;;;;;;13.00;8.90;;;12.20;99.90;;;;;;5026887;28;20236;-59
2021/05/13 10:45:37;;;;;;;9.63;8.63;;;12.20;99.90;;;;;;5024182;28;20277;-59
2021/05/13 10:48:19;;;;;;;10.23;8.90;;;12.10;99.90;;;;;;5024239;28;20251;-58
2021/05/13 10:50:51;;;;;;;9.87;8.33;;;12.10;99.90;;;;;;5025847;28;20238;-57
2021/05/13 10:53:43;;;;;;;10.20;9.10;;;12.10;99.90;;;;;;5027104;28;20294;-59
2021/05/13 10:56:20;;;;;;;9.77;8.77;;;12.10;99.90;;;;;;5026705;28;20719;-57
2021/05/13 10:59:01;;;;;;;10.07;8.97;;;12.10;99.90;;;;;;5027221;28;20776;-59
2021/05/13 11:01:39;;;;;;;10.90;8.87;;;12.10;99.90;;;;;;5025571;28;20278;-59
2021/05/13 11:04:41;;;;;;;12.17;10.87;;;12.10;99.90;;;;;;5026331;28;20247;-58
2021/05/13 11:07:31;;;;;;;11.67;10.47;;;12.10;99.90;;;;;;5024250;28;20243;-59
2021/05/13 11:10:02;;;;;;;11.77;10.33;;;12.10;99.90;;;;;;5026674;28;20235;-59
2021/05/13 11:12:39;;;;;;;10.37;9.37;;;12.10;99.90;;;;;;5007485;28;20233;-59
2021/05/13 11:15:25;;;;;;;11.03;9.37;;;12.20;99.90;;;;;;5007369;28;20240;-59
2021/05/13 11:18:08;;;;;;;10.40;9.40;;;12.20;99.90;;;;;;5025973;28;20297;-59
2021/05/13 11:20:40;;;;;;;11.03;9.13;;;12.30;99.90;;;;;;5006569;28;20244;-58
2021/05/13 11:23:11;;;;;;;10.53;9.53;;;12.20;99.90;;;;;;5007181;28;20238;-58
2021/05/13 11:25:42;;;;;;;9.73;8.73;;;12.20;99.90;;;;;;5007737;28;20232;-58
2021/05/13 11:28:29;;;;;;;9.53;8.57;;;12.20;99.90;;;;;;5007870;28;20244;-58
2021/05/13 11:31:14;;;;;;;9.87;8.73;;;12.20;99.90;;;;;;5006362;28;20244;-58
2021/05/13 11:33:46;;;;;;;10.30;9.23;;;12.30;99.90;;;;;;5007298;28;20290;-59
2021/05/13 11:36:16;;;;;;;9.67;8.67;;;12.30;99.90;;;;;;5007387;28;20294;-58
2021/05/13 11:38:45;;;;;;;11.47;9.00;;;12.30;99.90;;;;;;5007236;28;20603;-58
2021/05/13 11:41:18;;;;;;;10.40;8.60;;;12.30;99.90;;;;;;5021655;28;20607;-59
2021/05/13 11:43:47;;;;;;;10.53;8.70;;;12.40;99.90;;;;;;5025814;28;20235;-59
2021/05/13 11:46:18;;;;;;;10.37;8.80;;;12.40;99.90;;;;;;5025449;28;20239;-59
2021/05/13 11:48:48;;;;;;;9.43;8.30;;;12.40;99.90;;;;;;5025738;28;20240;-60
2021/05/13 11:51:20;;;;;;;11.43;8.93;;;12.30;99.90;;;;;;5027712;28;20699;-59
2021/05/13 11:53:49;;;;;;;8.83;7.90;;;12.40;99.90;;;;;;5029936;28;20245;-59
2021/05/13 11:56:18;;;;;;;12.20;8.30;;;12.50;99.90;;;;;;5028872;28;20319;-59
2021/05/13 11:58:48;;;;;;;11.13;9.10;;;12.50;99.90;;;;;;5028331;28;20244;-58
2021/05/13 12:01:33;;;;;;;10.07;8.63;;;12.40;99.90;;;;;;5025052;28;20264;-58
2021/05/13 12:04:09;;;;;;;12.23;8.97;;;12.60;99.90;;;;;;5025892;28;20781;-58
2021/05/13 12:06:49;;;;;;;9.53;8.03;;;12.70;99.90;;;;;;5022187;28;20733;-58
2021/05/13 12:09:19;;;;;;;8.83;7.93;;;12.90;99.90;;;;;;5028839;28;20228;-57
2021/05/13 12:11:49;;;;;;;8.97;8.07;;;12.90;99.90;;;;;;5028302;28;20619;-59
2021/05/13 12:14:23;;;;;;;9.60;7.83;;;12.80;99.90;;;;;;5029018;28;20236;-58
2021/05/13 12:16:55;;;;;;;8.00;7.20;;;12.70;99.90;;;;;;5028703;28;20244;-58
2021/05/13 12:19:26;;;;;;;8.50;7.63;;;12.70;99.90;;;;;;5027668;28;20247;-58
2021/05/13 12:21:56;;;;;;;7.80;7.00;;;12.70;99.90;;;;;;5027747;28;20244;-58
2021/05/13 12:24:29;;;;;;;9.23;7.37;;;12.70;99.90;;;;;;5028282;28;20244;-60
2021/05/13 12:26:58;;;;;;;8.43;7.63;;;12.70;99.90;;;;;;5028720;28;20233;-59
2021/05/13 12:29:27;;;;;;;9.60;7.70;;;12.80;99.90;;;;;;5008591;28;20229;-59
2021/05/13 12:31:54;;;;;;;8.33;7.43;;;12.70;99.90;;;;;;5009233;28;20241;-59
2021/05/13 12:34:36;;;;;;;8.07;7.27;;;12.60;99.90;;;;;;5010713;28;20470;-58
2021/05/13 12:37:06;;;;;;;8.47;7.03;;;12.60;99.90;;;;;;5010138;28;20294;-59
2021/05/13 12:39:38;;;;;;;8.60;6.93;;;12.60;99.90;;;;;;5016983;28;20638;-58
2021/05/13 12:42:26;;;;;;;8.37;6.40;;;12.60;99.90;;;;;;5028479;28;20703;-59
2021/05/13 12:45:15;;;;;;;7.53;6.83;;;12.60;99.90;;;;;;5026328;28;20731;-57
2021/05/13 12:47:45;;;;;;;7.77;6.57;;;12.80;99.90;;;;;;5029567;28;21178;-58